sensor_id;sensor_type;location;lat;lon;timestamp;pressure;altitude;pressure_sealevel;temperature;humidity
60228;BME280;46091;46.512;6.626;2022-11-20T09:36:22;96785.59;;;10.94;59.51
60228;BME280;46091;46.512;6.626;2022-11-20T09:38:25;96792.25;;;11.25;59.15
60228;BME280;46091;46.512;6.626;2022-11-20T09:40:28;96791.13;;;11.47;58.85
60228;BME280;46091;46.512;6.626;2022-11-20T09:42:39;96792.38;;;11.64;58.44
60228;BME280;46091;46.512;6.626;2022-11-20T09:45:12;96794.06;;;11.79;58.25
60228;BME280;46091;46.512;6.626;2022-11-20T09:47:26;96796.75;;;11.85;57.66
60228;BME280;46091;46.512;6.626;2022-11-20T09:49:45;96790.03;;;11.96;57.43
60228;BME280;46091;46.512;6.626;2022-11-20T09:51:57;96800.25;;;12.06;57.23
60228;BME280;46091;46.512;6.626;2022-11-20T09:54:09;96794.34;;;12.10;56.90
60228;BME280;46091;46.512;6.626;2022-11-20T09:56:17;96792.13;;;12.14;57.02
60228;BME280;46091;46.512;6.626;2022-11-20T09:58:28;96794.16;;;12.18;56.59
60228;BME280;46091;46.512;6.626;2022-11-20T10:00:35;96799.47;;;12.25;56.70
60228;BME280;46091;46.512;6.626;2022-11-20T10:02:43;96786.00;;;12.27;56.30
60228;BME280;46091;46.512;6.626;2022-11-20T10:04:58;96792.50;;;12.31;56.14
60228;BME280;46091;46.512;6.626;2022-11-20T10:07:06;96794.16;;;12.32;56.09
60228;BME280;46091;46.512;6.626;2022-11-20T10:09:33;96789.88;;;12.31;55.94
60228;BME280;46091;46.512;6.626;2022-11-20T10:11:44;96785.16;;;12.33;55.55
60228;BME280;46091;46.512;6.626;2022-11-20T10:13:57;96794.38;;;12.37;55.60
60228;BME280;46091;46.512;6.626;2022-11-20T10:16:18;96803.75;;;12.39;55.46
60228;BME280;46091;46.512;6.626;2022-11-20T10:18:38;96791.28;;;12.40;55.42
60228;BME280;46091;46.512;6.626;2022-11-20T10:20:50;96786.81;;;12.40;55.00
60228;BME280;46091;46.512;6.626;2022-11-20T10:23:14;96792.50;;;12.44;55.22
60228;BME280;46091;46.512;6.626;2022-11-20T10:25:33;96787.22;;;12.44;54.70
60228;BME280;46091;46.512;6.626;2022-11-20T10:30:11;96776.59;;;12.44;54.59
60228;BME280;46091;46.512;6.626;2022-11-20T10:32:17;96781.50;;;12.47;54.68
60228;BME280;46091;46.512;6.626;2022-11-20T10:34:24;96768.03;;;12.42;54.27
60228;BME280;46091;46.512;6.626;2022-11-20T10:36:33;96790.47;;;12.52;54.29
60228;BME280;46091;46.512;6.626;2022-11-20T10:38:42;96782.31;;;12.54;54.20
60228;BME280;46091;46.512;6.626;2022-11-20T10:40:48;96784.75;;;12.56;53.99
60228;BME280;46091;46.512;6.626;2022-11-20T10:42:56;96783.94;;;12.55;54.15
60228;BME280;46091;46.512;6.626;2022-11-20T10:45:09;96783.94;;;12.55;53.80
60228;BME280;46091;46.512;6.626;2022-11-20T10:47:19;96788.22;;;12.56;53.72
60228;BME280;46091;46.512;6.626;2022-11-20T10:49:22;96782.72;;;12.58;53.59
60228;BME280;46091;46.512;6.626;2022-11-20T10:51:35;96780.25;;;12.56;53.71
60228;BME280;46091;46.512;6.626;2022-11-20T10:53:47;96777.44;;;12.58;53.69
60228;BME280;46091;46.512;6.626;2022-11-20T10:55:56;96777.81;;;12.61;53.51
60228;BME280;46091;46.512;6.626;2022-11-20T10:58:07;96778.63;;;12.62;53.54
60228;BME280;46091;46.512;6.626;2022-11-20T11:00:13;96777.63;;;12.63;53.17
60228;BME280;46091;46.512;6.626;2022-11-20T11:02:20;96764.75;;;12.66;53.24
60228;BME280;46091;46.512;6.626;2022-11-20T11:04:35;96769.66;;;12.69;53.10
60228;BME280;46091;46.512;6.626;2022-11-20T11:06:43;96757.00;;;12.71;53.11
60228;BME280;46091;46.512;6.626;2022-11-20T11:08:53;96759.44;;;12.73;52.79
60228;BME280;46091;46.512;6.626;2022-11-20T11:11:00;96750.47;;;12.74;52.95
60228;BME280;46091;46.512;6.626;2022-11-20T11:13:05;96751.28;;;12.74;52.44
60228;BME280;46091;46.512;6.626;2022-11-20T11:15:13;96754.94;;;12.73;52.50
60228;BME280;46091;46.512;6.626;2022-11-20T11:17:23;96749.66;;;12.73;52.46
60228;BME280;46091;46.512;6.626;2022-11-20T11:19:28;96744.34;;;12.73;52.41
60228;BME280;46091;46.512;6.626;2022-11-20T11:21:31;96730.88;;;12.75;52.46
60228;BME280;46091;46.512;6.626;2022-11-20T11:23:35;96739.84;;;12.74;52.11
60228;BME280;46091;46.512;6.626;2022-11-20T11:25:40;96733.72;;;12.73;51.91
60228;BME280;46091;46.512;6.626;2022-11-20T11:27:46;96731.06;;;12.73;51.95
60228;BME280;46091;46.512;6.626;2022-11-20T11:29:49;96722.09;;;12.74;52.07
60228;BME280;46091;46.512;6.626;2022-11-20T11:32:03;96727.41;;;12.74;51.87
60228;BME280;46091;46.512;6.626;2022-11-20T11:34:08;96712.09;;;12.76;51.69
60228;BME280;46091;46.512;6.626;2022-11-20T11:36:18;96712.09;;;12.76;51.75
60228;BME280;46091;46.512;6.626;2022-11-20T11:38:28;96701.69;;;12.75;51.86
60228;BME280;46091;46.512;6.626;2022-11-20T11:40:33;96689.66;;;12.72;51.53
60228;BME280;46091;46.512;6.626;2022-11-20T11:42:43;96684.16;;;12.74;51.38
60228;BME280;46091;46.512;6.626;2022-11-20T11:44:47;96683.94;;;12.75;51.36
60228;BME280;46091;46.512;6.626;2022-11-20T11:47:11;96674.34;;;12.74;51.51
60228;BME280;46091;46.512;6.626;2022-11-20T11:49:21;96669.66;;;12.76;51.25
60228;BME280;46091;46.512;6.626;2022-11-20T11:51:26;96673.31;;;12.75;51.21
60228;BME280;46091;46.512;6.626;2022-11-20T11:53:33;96668.63;;;12.77;51.13
60228;BME280;46091;46.512;6.626;2022-11-20T11:55:44;96660.66;;;12.77;51.30
60228;BME280;46091;46.512;6.626;2022-11-20T11:57:53;96650.06;;;12.77;50.91
60228;BME280;46091;46.512;6.626;2022-11-20T12:00:03;96642.09;;;12.77;50.98
60228;BME280;46091;46.512;6.626;2022-11-20T12:02:27;96641.88;;;12.79;51.00
60228;BME280;46091;46.512;6.626;2022-11-20T12:04:42;96639.03;;;12.80;50.68
60228;BME280;46091;46.512;6.626;2022-11-20T12:06:50;96633.31;;;12.77;50.36
60228;BME280;46091;46.512;6.626;2022-11-20T12:08:57;96643.13;;;12.76;50.54
60228;BME280;46091;46.512;6.626;2022-11-20T12:11:05;96634.13;;;12.77;50.59
60228;BME280;46091;46.512;6.626;2022-11-20T12:13:18;96625.16;;;12.78;50.58
60228;BME280;46091;46.512;6.626;2022-11-20T12:15:29;96621.47;;;12.79;50.24
60228;BME280;46091;46.512;6.626;2022-11-20T12:17:32;96615.97;;;12.81;50.54
60228;BME280;46091;46.512;6.626;2022-11-20T12:19:35;96605.56;;;12.79;50.43
60228;BME280;46091;46.512;6.626;2022-11-20T12:21:45;96609.22;;;12.78;50.26
60228;BME280;46091;46.512;6.626;2022-11-20T12:24:02;96607.22;;;12.80;49.81
60228;BME280;46091;46.512;6.626;2022-11-20T12:26:15;96605.56;;;12.79;49.92
60228;BME280;46091;46.512;6.626;2022-11-20T12:28:38;96612.28;;;12.82;49.65
60228;BME280;46091;46.512;6.626;2022-11-20T12:30:55;96610.03;;;12.86;49.50
60228;BME280;46091;46.512;6.626;2022-11-20T12:33:18;96616.56;;;12.83;49.32
60228;BME280;46091;46.512;6.626;2022-11-20T12:35:41;96619.25;;;12.76;49.67
60228;BME280;46091;46.512;6.626;2022-11-20T12:37:53;96622.94;;;12.75;49.69
60228;BME280;46091;46.512;6.626;2022-11-20T12:40:07;96620.28;;;12.75;49.45
60228;BME280;46091;46.512;6.626;2022-11-20T12:45:07;96585.97;;;12.80;49.36
60228;BME280;46091;46.512;6.626;2022-11-20T12:47:18;96582.69;;;12.78;49.27
60228;BME280;46091;46.512;6.626;2022-11-20T12:49:33;96588.81;;;12.79;49.16
60228;BME280;46091;46.512;6.626;2022-11-20T12:52:04;96590.66;;;12.78;48.88
60228;BME280;46091;46.512;6.626;2022-11-20T12:54:29;96593.94;;;12.80;49.05
60228;BME280;46091;46.512;6.626;2022-11-20T12:56:42;96595.34;;;12.83;48.90
60228;BME280;46091;46.512;6.626;2022-11-20T12:58:55;96597.19;;;12.82;48.73
60228;BME280;46091;46.512;6.626;2022-11-20T13:01:10;96597.78;;;12.85;48.70
60228;BME280;46091;46.512;6.626;2022-11-20T13:03:42;96601.47;;;12.83;48.59
60228;BME280;46091;46.512;6.626;2022-11-20T13:05:55;96606.78;;;12.83;48.64
60228;BME280;46091;46.512;6.626;2022-11-20T13:08:00;96602.88;;;12.86;48.57
60228;BME280;46091;46.512;6.626;2022-11-20T13:10:06;96605.31;;;12.88;48.37
60228;BME280;46091;46.512;6.626;2022-11-20T13:12:19;96613.88;;;12.90;48.46
60228;BME280;46091;46.512;6.626;2022-11-20T13:14:32;96610.41;;;12.89;48.46
60228;BME280;46091;46.512;6.626;2022-11-20T13:16:46;96611.84;;;12.92;48.31
60228;BME280;46091;46.512;6.626;2022-11-20T13:18:51;96607.13;;;12.94;48.23
60228;BME280;46091;46.512;6.626;2022-11-20T13:20:54;96592.25;;;12.93;48.43
60228;BME280;46091;46.512;6.626;2022-11-20T13:22:57;96589.59;;;12.93;48.28
60228;BME280;46091;46.512;6.626;2022-11-20T13:25:00;96594.47;;;12.96;47.91
60228;BME280;46091;46.512;6.626;2022-11-20T13:27:20;96596.09;;;12.97;47.99
60228;BME280;46091;46.512;6.626;2022-11-20T13:29:24;96595.06;;;12.98;48.23
60228;BME280;46091;46.512;6.626;2022-11-20T13:31:31;96599.34;;;12.99;48.00
60228;BME280;46091;46.512;6.626;2022-11-20T13:33:36;96587.69;;;13.00;47.94
60228;BME280;46091;46.512;6.626;2022-11-20T13:35:41;96588.28;;;13.02;47.70
60228;BME280;46091;46.512;6.626;2022-11-20T13:37:44;96579.50;;;13.01;47.62
60228;BME280;46091;46.512;6.626;2022-11-20T13:39:47;96574.84;;;13.03;47.49
60228;BME280;46091;46.512;6.626;2022-11-20T13:41:54;96566.06;;;13.03;47.68
60228;BME280;46091;46.512;6.626;2022-11-20T13:43:59;96559.72;;;13.04;47.41
60228;BME280;46091;46.512;6.626;2022-11-20T13:46:09;96558.91;;;13.03;47.30
60228;BME280;46091;46.512;6.626;2022-11-20T13:48:20;96560.53;;;13.04;47.32
60228;BME280;46091;46.512;6.626;2022-11-20T13:50:39;96559.50;;;13.05;47.34
60228;BME280;46091;46.512;6.626;2022-11-20T13:52:50;96557.88;;;13.04;47.16
60228;BME280;46091;46.512;6.626;2022-11-20T13:55:05;96554.41;;;13.04;47.29
60228;BME280;46091;46.512;6.626;2022-11-20T13:57:30;96551.53;;;13.05;47.32
60228;BME280;46091;46.512;6.626;2022-11-20T13:59:46;96558.47;;;13.06;47.25
60228;BME280;46091;46.512;6.626;2022-11-20T14:01:55;96553.75;;;13.08;47.08
60228;BME280;46091;46.512;6.626;2022-11-20T14:03:58;96560.09;;;13.07;47.13
60228;BME280;46091;46.512;6.626;2022-11-20T14:06:15;96555.81;;;13.06;47.04
60228;BME280;46091;46.512;6.626;2022-11-20T14:08:26;96550.50;;;13.06;46.73
60228;BME280;46091;46.512;6.626;2022-11-20T14:10:31;96556.63;;;13.07;46.85
60228;BME280;46091;46.512;6.626;2022-11-20T14:12:35;96553.38;;;13.05;46.87
60228;BME280;46091;46.512;6.626;2022-11-20T14:14:47;96549.31;;;13.02;46.65
60228;BME280;46091;46.512;6.626;2022-11-20T14:16:51;96543.00;;;13.03;46.65
60228;BME280;46091;46.512;6.626;2022-11-20T14:18:55;96538.50;;;13.04;46.65
60228;BME280;46091;46.512;6.626;2022-11-20T14:21:00;96540.13;;;13.05;46.26
60228;BME280;46091;46.512;6.626;2022-11-20T14:23:09;96540.13;;;13.05;46.29
60228;BME280;46091;46.512;6.626;2022-11-20T14:25:19;96525.81;;;13.06;46.22
60228;BME280;46091;46.512;6.626;2022-11-20T14:27:24;96520.50;;;13.06;46.22
60228;BME280;46091;46.512;6.626;2022-11-20T14:29:29;96509.53;;;13.02;46.33
60228;BME280;46091;46.512;6.626;2022-11-20T14:31:35;96520.13;;;13.02;46.33
60228;BME280;46091;46.512;6.626;2022-11-20T14:33:38;96515.63;;;13.03;45.99
60228;BME280;46091;46.512;6.626;2022-11-20T14:35:44;96521.31;;;13.06;46.17
60228;BME280;46091;46.512;6.626;2022-11-20T14:37:48;96510.94;;;13.05;45.98
60228;BME280;46091;46.512;6.626;2022-11-20T14:39:54;96513.59;;;13.05;45.90
60228;BME280;46091;46.512;6.626;2022-11-20T14:41:57;96522.34;;;13.05;46.05
60228;BME280;46091;46.512;6.626;2022-11-20T14:44:00;96520.50;;;13.06;45.81
60228;BME280;46091;46.512;6.626;2022-11-20T14:46:06;96523.75;;;13.08;45.74
60228;BME280;46091;46.512;6.626;2022-11-20T14:48:10;96514.19;;;13.07;45.79
60228;BME280;46091;46.512;6.626;2022-11-20T14:50:17;96503.34;;;13.08;46.05
60228;BME280;46091;46.512;6.626;2022-11-20T14:52:22;96516.38;;;13.10;45.93
60228;BME280;46091;46.512;6.626;2022-11-20T14:54:25;96505.41;;;13.06;45.73
60228;BME280;46091;46.512;6.626;2022-11-20T14:56:31;96500.91;;;13.07;45.90
60228;BME280;46091;46.512;6.626;2022-11-20T14:58:33;96512.09;;;13.09;46.06
60228;BME280;46091;46.512;6.626;2022-11-20T15:00:36;96493.53;;;13.09;45.89
60228;BME280;46091;46.512;6.626;2022-11-20T15:02:40;96502.09;;;13.11;45.96
60228;BME280;46091;46.512;6.626;2022-11-20T15:04:45;96500.25;;;13.11;45.99
60228;BME280;46091;46.512;6.626;2022-11-20T15:06:50;96498.41;;;13.12;45.96
60228;BME280;46091;46.512;6.626;2022-11-20T15:08:53;96494.72;;;13.13;46.03
60228;BME280;46091;46.512;6.626;2022-11-20T15:10:56;96486.75;;;13.13;45.82
60228;BME280;46091;46.512;6.626;2022-11-20T15:13:03;96490.44;;;13.12;45.99
60228;BME280;46091;46.512;6.626;2022-11-20T15:15:17;96485.13;;;13.12;45.82
60228;BME280;46091;46.512;6.626;2022-11-20T15:17:21;96475.53;;;13.11;45.76
60228;BME280;46091;46.512;6.626;2022-11-20T15:19:25;96479.81;;;13.12;45.68
60228;BME280;46091;46.512;6.626;2022-11-20T15:21:29;96485.13;;;13.12;45.68
60228;BME280;46091;46.512;6.626;2022-11-20T15:23:32;96487.78;;;13.12;45.58
60228;BME280;46091;46.512;6.626;2022-11-20T15:25:34;96490.44;;;13.12;45.98
60228;BME280;46091;46.512;6.626;2022-11-20T15:27:37;96479.00;;;13.11;45.82
60228;BME280;46091;46.512;6.626;2022-11-20T15:29:42;96483.50;;;13.11;45.77
60228;BME280;46091;46.512;6.626;2022-11-20T15:31:44;96477.97;;;13.12;45.57
60228;BME280;46091;46.512;6.626;2022-11-20T15:33:47;96480.84;;;13.11;45.85
60228;BME280;46091;46.512;6.626;2022-11-20T15:35:50;96486.81;;;13.06;45.61
60228;BME280;46091;46.512;6.626;2022-11-20T15:37:53;96481.50;;;13.06;45.47
60228;BME280;46091;46.512;6.626;2022-11-20T15:39:56;96484.16;;;13.06;45.62
60228;BME280;46091;46.512;6.626;2022-11-20T15:41:59;96470.91;;;13.06;45.52
60228;BME280;46091;46.512;6.626;2022-11-20T15:44:02;96471.13;;;13.05;45.79
60228;BME280;46091;46.512;6.626;2022-11-20T15:46:10;96479.09;;;13.05;45.42
60228;BME280;46091;46.512;6.626;2022-11-20T15:48:16;96474.19;;;13.02;45.72
60228;BME280;46091;46.512;6.626;2022-11-20T15:50:19;96473.59;;;13.00;45.38
60228;BME280;46091;46.512;6.626;2022-11-20T15:52:22;96462.97;;;13.00;45.76
60228;BME280;46091;46.512;6.626;2022-11-20T15:54:25;96474.41;;;13.00;45.73
60228;BME280;46091;46.512;6.626;2022-11-20T15:56:28;96467.25;;;13.01;45.37
60228;BME280;46091;46.512;6.626;2022-11-20T15:58:31;96464.00;;;12.99;45.62
60228;BME280;46091;46.512;6.626;2022-11-20T16:00:34;96474.03;;;12.97;45.78
60228;BME280;46091;46.512;6.626;2022-11-20T16:02:38;96482.59;;;12.99;45.44
60228;BME280;46091;46.512;6.626;2022-11-20T16:04:41;96486.28;;;12.98;45.33
60228;BME280;46091;46.512;6.626;2022-11-20T16:06:44;96478.09;;;12.99;45.46
60228;BME280;46091;46.512;6.626;2022-11-20T16:08:47;96490.97;;;12.96;45.58
60228;BME280;46091;46.512;6.626;2022-11-20T16:10:49;96494.88;;;12.93;45.57
60228;BME280;46091;46.512;6.626;2022-11-20T16:12:52;96507.72;;;12.96;45.59
60228;BME280;46091;46.512;6.626;2022-11-20T16:15:12;96498.72;;;12.97;45.68
60228;BME280;46091;46.512;6.626;2022-11-20T16:17:33;96504.25;;;12.96;45.33
60228;BME280;46091;46.512;6.626;2022-11-20T16:19:46;96504.84;;;12.98;45.56
60228;BME280;46091;46.512;6.626;2022-11-20T16:21:48;96509.13;;;12.99;45.79
60228;BME280;46091;46.512;6.626;2022-11-20T16:23:52;96511.78;;;12.99;45.55
60228;BME280;46091;46.512;6.626;2022-11-20T16:25:55;96512.59;;;12.99;45.82
60228;BME280;46091;46.512;6.626;2022-11-20T16:27:58;96513.03;;;12.96;45.70
60228;BME280;46091;46.512;6.626;2022-11-20T16:30:02;96511.19;;;12.97;45.52
60228;BME280;46091;46.512;6.626;2022-11-20T16:32:05;96519.28;;;13.02;45.63
60228;BME280;46091;46.512;6.626;2022-11-20T16:34:07;96500.13;;;13.00;45.60
60228;BME280;46091;46.512;6.626;2022-11-20T16:36:14;96502.41;;;12.96;45.47
60228;BME280;46091;46.512;6.626;2022-11-20T16:38:17;96504.69;;;12.93;45.54
60228;BME280;46091;46.512;6.626;2022-11-20T16:40:20;96501.41;;;12.91;45.62
60228;BME280;46091;46.512;6.626;2022-11-20T16:42:23;96510.03;;;12.86;45.45
60228;BME280;46091;46.512;6.626;2022-11-20T16:44:26;96507.16;;;12.88;45.87
60228;BME280;46091;46.512;6.626;2022-11-20T16:46:30;96511.44;;;12.89;45.71
60228;BME280;46091;46.512;6.626;2022-11-20T16:48:33;96520.81;;;12.91;45.98
60228;BME280;46091;46.512;6.626;2022-11-20T16:50:36;96525.50;;;12.89;45.55
60228;BME280;46091;46.512;6.626;2022-11-20T16:52:40;96529.59;;;12.92;45.83
60228;BME280;46091;46.512;6.626;2022-11-20T16:54:43;96527.94;;;12.91;45.79
60228;BME280;46091;46.512;6.626;2022-11-20T16:56:46;96517.53;;;12.89;45.50
60228;BME280;46091;46.512;6.626;2022-11-20T16:58:49;96519.38;;;12.89;45.40
60228;BME280;46091;46.512;6.626;2022-11-20T17:00:52;96528.16;;;12.89;45.56
60228;BME280;46091;46.512;6.626;2022-11-20T17:02:55;96530.81;;;12.89;45.25
60228;BME280;46091;46.512;6.626;2022-11-20T17:04:57;96534.47;;;12.95;45.14
60228;BME280;46091;46.512;6.626;2022-11-20T17:07:00;96544.06;;;12.96;45.20
60228;BME280;46091;46.512;6.626;2022-11-20T17:09:10;96546.09;;;12.94;45.18
60228;BME280;46091;46.512;6.626;2022-11-20T17:11:15;96554.66;;;12.96;45.33
60228;BME280;46091;46.512;6.626;2022-11-20T17:13:18;96572.03;;;12.92;45.80
60228;BME280;46091;46.512;6.626;2022-11-20T17:15:21;96566.75;;;12.92;45.68
60228;BME280;46091;46.512;6.626;2022-11-20T17:17:23;96575.28;;;12.94;45.77
60228;BME280;46091;46.512;6.626;2022-11-20T17:19:26;96582.84;;;12.90;45.83
60228;BME280;46091;46.512;6.626;2022-11-20T17:21:29;96580.19;;;12.90;45.99
60228;BME280;46091;46.512;6.626;2022-11-20T17:23:34;96589.19;;;12.89;45.93
60228;BME280;46091;46.512;6.626;2022-11-20T17:25:38;96586.16;;;12.86;45.78
60228;BME280;46091;46.512;6.626;2022-11-20T17:27:41;96583.72;;;12.84;46.17
60228;BME280;46091;46.512;6.626;2022-11-20T17:29:44;96582.91;;;12.83;46.04
60228;BME280;46091;46.512;6.626;2022-11-20T17:31:47;96593.28;;;12.85;46.03
60228;BME280;46091;46.512;6.626;2022-11-20T17:33:50;96600.59;;;12.90;46.16
60228;BME280;46091;46.512;6.626;2022-11-20T17:35:54;96596.13;;;12.90;46.15
60228;BME280;46091;46.512;6.626;2022-11-20T17:37:57;96597.56;;;12.86;46.31
60228;BME280;46091;46.512;6.626;2022-11-20T17:40:00;96587.41;;;12.83;46.33
60228;BME280;46091;46.512;6.626;2022-11-20T17:42:04;96598.63;;;12.78;46.32
60228;BME280;46091;46.512;6.626;2022-11-20T17:44:24;96581.06;;;12.77;46.62
60228;BME280;46091;46.512;6.626;2022-11-20T17:46:29;96583.34;;;12.80;46.54
60228;BME280;46091;46.512;6.626;2022-11-20T17:48:34;96581.88;;;12.85;46.20
60228;BME280;46091;46.512;6.626;2022-11-20T17:50:37;96595.72;;;12.87;46.34
60228;BME280;46091;46.512;6.626;2022-11-20T17:52:40;96592.47;;;12.85;46.45
60228;BME280;46091;46.512;6.626;2022-11-20T17:54:43;96608.63;;;12.83;46.57
60228;BME280;46091;46.512;6.626;2022-11-20T17:56:45;96618.41;;;12.82;46.49
60228;BME280;46091;46.512;6.626;2022-11-20T17:59:09;96638.41;;;12.78;46.39
60228;BME280;46091;46.512;6.626;2022-11-20T18:01:12;96620.69;;;12.72;46.81
60228;BME280;46091;46.512;6.626;2022-11-20T18:03:15;96624.75;;;12.75;46.76
60228;BME280;46091;46.512;6.626;2022-11-20T18:05:18;96620.47;;;12.74;46.46
60228;BME280;46091;46.512;6.626;2022-11-20T18:07:21;96634.56;;;12.74;46.43
60228;BME280;46091;46.512;6.626;2022-11-20T18:09:23;96635.38;;;12.68;46.49
60228;BME280;46091;46.512;6.626;2022-11-20T18:11:28;96631.75;;;12.63;46.49
60228;BME280;46091;46.512;6.626;2022-11-20T18:13:31;96656.66;;;12.55;46.87
60228;BME280;46091;46.512;6.626;2022-11-20T18:16:05;96648.09;;;12.53;46.93
60228;BME280;46091;46.512;6.626;2022-11-20T18:18:08;96666.06;;;12.51;46.97
60228;BME280;46091;46.512;6.626;2022-11-20T18:20:11;96664.03;;;12.46;46.70
60228;BME280;46091;46.512;6.626;2022-11-20T18:22:34;96661.41;;;12.33;46.90
60228;BME280;46091;46.512;6.626;2022-11-20T18:24:37;96656.34;;;12.18;46.89
60228;BME280;46091;46.512;6.626;2022-11-20T18:26:41;96658.81;;;12.13;47.30
60228;BME280;46091;46.512;6.626;2022-11-20T18:28:45;96666.75;;;12.13;47.46
60228;BME280;46091;46.512;6.626;2022-11-20T18:30:48;96665.91;;;12.19;47.47
60228;BME280;46091;46.512;6.626;2022-11-20T18:32:53;96668.34;;;12.21;47.23
60228;BME280;46091;46.512;6.626;2022-11-20T18:34:56;96666.72;;;12.20;47.38
60228;BME280;46091;46.512;6.626;2022-11-20T18:36:58;96647.78;;;12.16;47.57
60228;BME280;46091;46.512;6.626;2022-11-20T18:39:02;96662.06;;;12.15;47.73
60228;BME280;46091;46.512;6.626;2022-11-20T18:41:05;96657.16;;;12.06;47.38
60228;BME280;46091;46.512;6.626;2022-11-20T18:43:09;96658.63;;;12.02;47.86
60228;BME280;46091;46.512;6.626;2022-11-20T18:45:29;96660.63;;;12.00;47.94
60228;BME280;46091;46.512;6.626;2022-11-20T18:47:34;96657.16;;;11.99;47.54
60228;BME280;46091;46.512;6.626;2022-11-20T18:49:39;96656.13;;;12.00;47.78
60228;BME280;46091;46.512;6.626;2022-11-20T18:51:43;96658.19;;;11.98;47.62
60228;BME280;46091;46.512;6.626;2022-11-20T18:53:45;96659.22;;;12.04;47.92
60228;BME280;46091;46.512;6.626;2022-11-20T18:55:49;96654.69;;;12.11;47.44
60228;BME280;46091;46.512;6.626;2022-11-20T18:57:51;96643.28;;;12.10;47.26
60228;BME280;46091;46.512;6.626;2022-11-20T18:59:56;96646.19;;;12.02;47.31
60228;BME280;46091;46.512;6.626;2022-11-20T19:02:09;96651.06;;;11.99;47.40
60228;BME280;46091;46.512;6.626;2022-11-20T19:04:14;96659.81;;;11.99;47.38
60228;BME280;46091;46.512;6.626;2022-11-20T19:06:19;96659.00;;;11.99;47.76
60228;BME280;46091;46.512;6.626;2022-11-20T19:08:22;96663.69;;;12.03;47.56
60228;BME280;46091;46.512;6.626;2022-11-20T19:10:25;96661.66;;;12.05;47.73
60228;BME280;46091;46.512;6.626;2022-11-20T19:12:28;96663.28;;;12.06;47.74
60228;BME280;46091;46.512;6.626;2022-11-20T19:14:34;96653.50;;;12.00;47.95
60228;BME280;46091;46.512;6.626;2022-11-20T19:16:37;96651.25;;;12.04;47.90
60228;BME280;46091;46.512;6.626;2022-11-20T19:18:40;96654.31;;;12.07;47.90
60228;BME280;46091;46.512;6.626;2022-11-20T19:20:44;96654.53;;;12.12;47.95
60228;BME280;46091;46.512;6.626;2022-11-20T19:22:50;96656.53;;;12.10;47.74
60228;BME280;46091;46.512;6.626;2022-11-20T19:24:53;96648.59;;;12.10;47.66
60228;BME280;46091;46.512;6.626;2022-11-20T19:26:56;96653.72;;;12.12;47.97
60228;BME280;46091;46.512;6.626;2022-11-20T19:28:59;96670.44;;;12.12;47.77
60228;BME280;46091;46.512;6.626;2022-11-20T19:31:02;96660.63;;;12.13;48.03
60228;BME280;46091;46.512;6.626;2022-11-20T19:33:05;96668.59;;;12.13;48.26
60228;BME280;46091;46.512;6.626;2022-11-20T19:35:08;96664.09;;;12.13;48.13
60228;BME280;46091;46.512;6.626;2022-11-20T19:37:11;96665.50;;;12.09;48.27
60228;BME280;46091;46.512;6.626;2022-11-20T19:39:15;96676.75;;;12.05;48.61
60228;BME280;46091;46.512;6.626;2022-11-20T19:41:19;96677.34;;;12.07;48.67
60228;BME280;46091;46.512;6.626;2022-11-20T19:43:22;96680.00;;;12.13;48.29
60228;BME280;46091;46.512;6.626;2022-11-20T19:45:25;96682.84;;;12.18;48.61
60228;BME280;46091;46.512;6.626;2022-11-20T19:47:28;96682.84;;;12.18;48.39
60228;BME280;46091;46.512;6.626;2022-11-20T19:49:51;96697.50;;;12.21;48.86
60228;BME280;46091;46.512;6.626;2022-11-20T19:51:53;96699.75;;;12.24;48.42
60228;BME280;46091;46.512;6.626;2022-11-20T19:53:57;96702.81;;;12.28;48.62
60228;BME280;46091;46.512;6.626;2022-11-20T19:56:01;96700.75;;;12.30;48.92
60228;BME280;46091;46.512;6.626;2022-11-20T19:58:04;96713.84;;;12.24;49.01
60228;BME280;46091;46.512;6.626;2022-11-20T20:00:08;96709.94;;;12.27;48.91
60228;BME280;46091;46.512;6.626;2022-11-20T20:02:15;96703.84;;;12.27;48.97
60228;BME280;46091;46.512;6.626;2022-11-20T20:04:18;96703.22;;;12.24;49.12
60228;BME280;46091;46.512;6.626;2022-11-20T20:06:22;96714.66;;;12.25;49.54
60228;BME280;46091;46.512;6.626;2022-11-20T20:08:25;96714.84;;;12.23;49.54
60228;BME280;46091;46.512;6.626;2022-11-20T20:10:28;96717.50;;;12.23;49.70
60228;BME280;46091;46.512;6.626;2022-11-20T20:12:32;96719.72;;;12.27;49.43
60228;BME280;46091;46.512;6.626;2022-11-20T20:14:35;96719.72;;;12.27;49.78
60228;BME280;46091;46.512;6.626;2022-11-20T20:16:38;96714.22;;;12.28;49.48
60228;BME280;46091;46.512;6.626;2022-11-20T20:18:41;96715.03;;;12.29;49.63
60228;BME280;46091;46.512;6.626;2022-11-20T20:20:44;96718.28;;;12.31;49.71
60228;BME280;46091;46.512;6.626;2022-11-20T20:22:47;96726.25;;;12.31;49.82
60228;BME280;46091;46.512;6.626;2022-11-20T20:24:50;96730.94;;;12.29;50.09
60228;BME280;46091;46.512;6.626;2022-11-20T20:26:53;96732.38;;;12.24;49.92
60228;BME280;46091;46.512;6.626;2022-11-20T20:29:00;96735.84;;;12.25;50.14
60228;BME280;46091;46.512;6.626;2022-11-20T20:31:05;96746.25;;;12.27;49.86
60228;BME280;46091;46.512;6.626;2022-11-20T20:33:08;96749.09;;;12.25;50.44
60228;BME280;46091;46.512;6.626;2022-11-20T20:35:11;96757.88;;;12.26;50.46
60228;BME280;46091;46.512;6.626;2022-11-20T20:37:13;96769.28;;;12.26;50.27
60228;BME280;46091;46.512;6.626;2022-11-20T20:39:16;96770.31;;;12.25;50.29
60228;BME280;46091;46.512;6.626;2022-11-20T20:41:24;96766.00;;;12.17;50.70
60228;BME280;46091;46.512;6.626;2022-11-20T20:43:27;96772.13;;;12.18;50.77
60228;BME280;46091;46.512;6.626;2022-11-20T20:45:31;96783.53;;;12.18;50.91
60228;BME280;46091;46.512;6.626;2022-11-20T20:47:34;96774.78;;;12.18;50.88
60228;BME280;46091;46.512;6.626;2022-11-20T20:49:39;96778.66;;;12.15;51.10
60228;BME280;46091;46.512;6.626;2022-11-20T20:51:43;96783.13;;;12.15;50.82
60228;BME280;46091;46.512;6.626;2022-11-20T20:53:46;96800.06;;;12.20;51.37